Time;durP1;ratioP1;P1;durP2;ratioP2;P2;SDS_P1;SDS_P2;PMS_P1;PMS_P2;Temp;Humidity;BMP_temperature;BMP_pressure;BME280_temperature;BME280_humidity;BME280_pressure;Samples;Min_cycle;Max_cycle;Signal;HPM_P1;HPM_P2
2023/03/16 00:02:12;;;;;;;4.95;2.75;;;;;11.20;101577.00;;;;5047100;28;20234;-75
2023/03/16 00:04:41;;;;;;;2.78;2.45;;;;;11.20;101574.00;;;;5051550;28;20199;-76
2023/03/16 00:07:10;;;;;;;3.85;2.65;;;;;11.20;101576.00;;;;5048879;28;20232;-75
2023/03/16 00:09:39;;;;;;;3.33;2.58;;;;;11.20;101581.00;;;;5050926;28;20210;-75
2023/03/16 00:12:14;;;;;;;3.58;3.05;;;;;11.30;101571.00;;;;5044837;28;20290;-76
2023/03/16 00:14:42;;;;;;;3.92;3.00;;;;;11.30;101567.00;;;;5044881;28;20198;-75
2023/03/16 00:17:17;;;;;;;4.65;2.88;;;;;11.30;101559.00;;;;5050866;28;20207;-75
2023/03/16 00:19:47;;;;;;;5.85;2.72;;;;;11.30;101550.00;;;;5042251;28;20732;-75
2023/03/16 00:22:15;;;;;;;3.25;2.38;;;;;11.30;101554.00;;;;5035682;28;20228;-75
2023/03/16 00:24:43;;;;;;;3.83;2.70;;;;;11.30;101557.00;;;;5045385;28;20209;-75
2023/03/16 00:27:13;;;;;;;4.28;2.90;;;;;11.30;101548.00;;;;5048516;28;20216;-75
2023/03/16 00:29:46;;;;;;;4.15;2.72;;;;;11.30;101548.00;;;;5046805;28;20666;-75
2023/03/16 00:32:16;;;;;;;3.30;2.92;;;;;11.30;101545.00;;;;5034512;28;20660;-75
2023/03/16 00:34:43;;;;;;;5.57;3.03;;;;;11.30;101535.00;;;;5048245;28;20235;-75
2023/03/16 00:37:14;;;;;;;6.05;3.45;;;;;11.30;101536.00;;;;5043667;28;20208;-75
2023/03/16 00:39:42;;;;;;;3.13;2.80;;;;;11.40;101535.00;;;;5045827;28;20620;-75
2023/03/16 00:42:09;;;;;;;6.78;2.90;;;;;11.40;101536.00;;;;5045427;28;20207;-75
2023/03/16 00:44:37;;;;;;;4.20;3.42;;;;;11.40;101530.00;;;;5045883;28;20203;-75
2023/03/16 00:47:06;;;;;;;3.38;3.03;;;;;11.40;101527.00;;;;5047228;28;20243;-75
2023/03/16 00:49:34;;;;;;;7.65;3.35;;;;;11.40;101529.00;;;;5045784;28;20242;-75
2023/03/16 00:52:01;;;;;;;5.22;2.80;;;;;11.40;101526.00;;;;5049583;28;20207;-75
2023/03/16 00:54:31;;;;;;;4.18;3.10;;;;;11.40;101531.00;;;;5034675;28;20208;-75
2023/03/16 00:56:59;;;;;;;3.80;3.28;;;;;11.50;101520.00;;;;5048179;28;20245;-75
2023/03/16 00:59:27;;;;;;;4.10;3.00;;;;;11.50;101514.00;;;;5047316;28;20238;-75
2023/03/16 01:01:55;;;;;;;3.08;2.63;;;;;11.50;101511.00;;;;5040020;28;20203;-75
2023/03/16 01:04:22;;;;;;;4.40;3.42;;;;;11.50;101506.00;;;;5055520;28;20701;-75
2023/03/16 01:06:50;;;;;;;6.20;3.90;;;;;11.50;101500.00;;;;5048596;28;20679;-75
2023/03/16 01:09:17;;;;;;;5.38;3.55;;;;;11.50;101497.00;;;;5047126;28;20214;-76
2023/03/16 01:11:49;;;;;;;5.35;3.50;;;;;11.50;101490.00;;;;5047631;28;20191;-75
2023/03/16 01:14:16;;;;;;;4.05;3.35;;;;;11.50;101487.00;;;;5045225;28;20200;-76
2023/03/16 01:16:44;;;;;;;5.90;2.97;;;;;11.50;101487.00;;;;5047433;28;20701;-75
2023/03/16 01:19:12;;;;;;;4.40;3.45;;;;;11.50;101481.00;;;;5045194;28;20188;-76
2023/03/16 01:21:39;;;;;;;4.88;3.30;;;;;11.50;101484.00;;;;5048529;28;20199;-75
2023/03/16 01:24:07;;;;;;;4.15;3.40;;;;;11.50;101480.00;;;;5044568;28;20223;-75
2023/03/16 01:26:34;;;;;;;6.45;3.83;;;;;11.50;101475.00;;;;5047788;28;20200;-75
2023/03/16 01:29:03;;;;;;;4.97;3.53;;;;;11.50;101483.00;;;;5045991;28;20224;-75
2023/03/16 01:31:30;;;;;;;5.63;3.53;;;;;11.60;101481.00;;;;5045198;28;20207;-75
2023/03/16 01:33:58;;;;;;;5.63;3.47;;;;;11.60;101469.00;;;;5047269;28;20204;-75
2023/03/16 01:36:25;;;;;;;4.15;3.35;;;;;11.60;101470.00;;;;5042705;28;20226;-74
2023/03/16 01:38:52;;;;;;;3.90;3.08;;;;;11.60;101477.00;;;;5037232;28;20199;-74
2023/03/16 01:41:20;;;;;;;4.32;3.40;;;;;11.60;101455.00;;;;5048106;28;20211;-74
2023/03/16 01:43:50;;;;;;;3.80;3.20;;;;;11.60;101458.00;;;;5043437;28;20251;-74
2023/03/16 01:46:22;;;;;;;6.13;3.47;;;;;11.60;101457.00;;;;5042550;28;20621;-74
2023/03/16 01:49:09;;;;;;;4.70;3.30;;;;;11.50;101459.00;;;;5045865;28;20211;-75
2023/03/16 01:51:42;;;;;;;4.47;3.38;;;;;11.60;101457.00;;;;5046852;28;20627;-74
2023/03/16 01:54:15;;;;;;;4.72;2.92;;;;;11.60;101455.00;;;;5046283;28;20674;-74
2023/03/16 01:56:50;;;;;;;5.50;3.35;;;;;11.60;101448.00;;;;5041272;28;20659;-74
2023/03/16 01:59:21;;;;;;;4.35;3.17;;;;;11.70;101437.00;;;;5047365;28;20195;-74
2023/03/16 02:01:51;;;;;;;3.67;2.80;;;;;11.70;101441.00;;;;5044326;28;20199;-74
2023/03/16 02:04:26;;;;;;;3.97;3.30;;;;;11.60;101437.00;;;;5043154;28;20577;-74
2023/03/16 02:06:57;;;;;;;4.57;3.78;;;;;11.70;101438.00;;;;5041786;28;20204;-74
2023/03/16 02:09:25;;;;;;;4.60;3.38;;;;;11.70;101433.00;;;;5048954;28;20219;-75
2023/03/16 02:11:54;;;;;;;4.53;3.72;;;;;11.70;101420.00;;;;5048506;28;20738;-75
2023/03/16 02:14:23;;;;;;;4.63;3.83;;;;;11.70;101415.00;;;;5047398;28;20230;-75
2023/03/16 02:16:52;;;;;;;4.80;4.03;;;;;11.70;101410.00;;;;5045273;28;20196;-75
2023/03/16 02:19:35;;;;;;;3.55;3.25;;;;;11.70;101424.00;;;;5046266;28;20203;-75
2023/03/16 02:22:05;;;;;;;3.80;3.20;;;;;11.80;101418.00;;;;5047550;28;20208;-74
2023/03/16 02:24:33;;;;;;;5.00;3.60;;;;;11.80;101412.00;;;;5048637;28;20219;-75
2023/03/16 02:27:03;;;;;;;3.97;3.13;;;;;11.80;101410.00;;;;5047381;28;20207;-75
2023/03/16 02:29:55;;;;;;;4.72;3.17;;;;;11.70;101399.00;;;;5048136;28;20580;-75
2023/03/16 02:32:25;;;;;;;4.38;2.95;;;;;11.80;101404.00;;;;5047477;28;20210;-75
2023/03/16 02:34:52;;;;;;;4.32;2.97;;;;;11.80;101401.00;;;;5045471;28;20203;-75
2023/03/16 02:37:20;;;;;;;4.07;3.13;;;;;11.80;101398.00;;;;5039857;28;20199;-75
2023/03/16 02:39:48;;;;;;;4.35;3.80;;;;;11.80;101397.00;;;;5046811;28;20628;-75
2023/03/16 02:42:17;;;;;;;4.32;3.15;;;;;11.80;101399.00;;;;5042480;28;20672;-75
2023/03/16 02:44:49;;;;;;;7.22;3.55;;;;;11.80;101400.00;;;;5041315;28;20235;-75
2023/03/16 02:47:26;;;;;;;4.05;3.10;;;;;11.80;101403.00;;;;5046974;28;20684;-75
2023/03/16 02:49:54;;;;;;;3.95;3.53;;;;;11.80;101402.00;;;;5045196;28;20203;-75
2023/03/16 02:52:21;;;;;;;3.90;3.17;;;;;11.80;101406.00;;;;5042258;28;20215;-75
2023/03/16 02:54:48;;;;;;;4.63;3.30;;;;;11.80;101409.00;;;;5042567;28;20222;-75
2023/03/16 02:57:15;;;;;;;5.15;3.35;;;;;11.80;101414.00;;;;5046319;28;20580;-75
2023/03/16 02:59:43;;;;;;;4.05;3.17;;;;;11.80;101424.00;;;;5046940;28;20314;-75
2023/03/16 03:02:10;;;;;;;5.57;3.50;;;;;11.80;101418.00;;;;5044325;28;20199;-75
2023/03/16 03:04:39;;;;;;;5.43;3.55;;;;;11.80;101420.00;;;;5045328;28;20413;-75
2023/03/16 03:07:06;;;;;;;4.30;3.13;;;;;11.80;101415.00;;;;5045145;28;20230;-75
2023/03/16 03:09:34;;;;;;;4.18;3.53;;;;;11.80;101414.00;;;;5044753;28;20589;-75
2023/03/16 03:12:01;;;;;;;3.55;2.83;;;;;11.80;101408.00;;;;5048974;28;20204;-76
2023/03/16 03:14:28;;;;;;;4.53;3.60;;;;;11.80;101407.00;;;;5036294;28;20222;-75
2023/03/16 03:16:56;;;;;;;3.90;3.15;;;;;11.80;101404.00;;;;5044615;28;20218;-75
2023/03/16 03:19:23;;;;;;;3.42;2.88;;;;;11.80;101399.00;;;;5044575;28;20199;-75
2023/03/16 03:21:55;;;;;;;3.97;3.10;;;;;11.80;101395.00;;;;5047535;28;20200;-75
2023/03/16 03:24:23;;;;;;;4.30;3.20;;;;;11.90;101396.00;;;;5050016;28;20778;-75
2023/03/16 03:26:52;;;;;;;3.30;2.83;;;;;11.80;101391.00;;;;5040935;28;20196;-75
2023/03/16 03:29:19;;;;;;;7.13;3.58;;;;;11.80;101384.00;;;;5048118;28;20956;-75
2023/03/16 03:31:46;;;;;;;5.47;3.78;;;;;11.80;101381.00;;;;5045106;28;20250;-75
2023/03/16 03:34:14;;;;;;;4.75;3.40;;;;;11.80;101387.00;;;;5043995;28;20197;-75
2023/03/16 03:36:41;;;;;;;4.95;3.10;;;;;11.90;101387.00;;;;5046848;28;20572;-75
2023/03/16 03:39:10;;;;;;;4.57;3.15;;;;;11.80;101377.00;;;;5047951;28;20199;-75
2023/03/16 03:41:37;;;;;;;4.20;3.40;;;;;11.90;101373.00;;;;5045281;28;20199;-75
2023/03/16 03:44:05;;;;;;;4.13;3.20;;;;;11.90;101376.00;;;;5048231;28;20220;-75
2023/03/16 03:46:32;;;;;;;3.67;2.88;;;;;11.90;101368.00;;;;5044460;28;20567;-75
2023/03/16 03:49:02;;;;;;;4.03;3.03;;;;;11.90;101366.00;;;;5046098;28;20634;-75
2023/03/16 03:51:30;;;;;;;4.88;3.05;;;;;11.80;101365.00;;;;5047273;28;20199;-75
2023/03/16 03:53:58;;;;;;;3.95;3.15;;;;;11.80;101366.00;;;;5040541;28;20752;-75
2023/03/16 03:56:27;;;;;;;3.78;2.80;;;;;11.80;101365.00;;;;5048371;28;20207;-75
2023/03/16 03:58:54;;;;;;;4.28;2.90;;;;;11.80;101363.00;;;;5050865;28;20299;-75
2023/03/16 04:01:21;;;;;;;4.13;2.97;;;;;11.80;101361.00;;;;5046617;28;20207;-75
2023/03/16 04:03:49;;;;;;;5.65;3.05;;;;;11.80;101356.00;;;;5039703;28;20226;-75
2023/03/16 04:06:16;;;;;;;4.45;2.95;;;;;11.80;101352.00;;;;5050909;28;20242;-75
2023/03/16 04:08:44;;;;;;;3.90;3.13;;;;;11.80;101346.00;;;;5050549;28;20235;-75
2023/03/16 04:11:11;;;;;;;3.80;2.80;;;;;11.80;101348.00;;;;5042620;28;20227;-75
2023/03/16 04:13:40;;;;;;;4.35;2.95;;;;;11.80;101344.00;;;;5038244;28;20751;-75
2023/03/16 04:16:07;;;;;;;4.30;2.97;;;;;11.80;101338.00;;;;5049122;28;20665;-75
2023/03/16 04:18:37;;;;;;;5.38;3.40;;;;;11.80;101333.00;;;;5034261;28;20207;-75
2023/03/16 04:21:05;;;;;;;4.32;2.95;;;;;11.80;101343.00;;;;5030907;28;20295;-74
2023/03/16 04:23:33;;;;;;;4.90;3.17;;;;;11.80;101333.00;;;;5030677;28;20274;-75
2023/03/16 04:26:02;;;;;;;3.55;3.03;;;;;11.70;101329.00;;;;5033279;28;20204;-75
2023/03/16 04:28:31;;;;;;;4.82;3.35;;;;;11.70;101328.00;;;;5049342;28;20342;-74
2023/03/16 04:31:04;;;;;;;4.80;3.42;;;;;11.70;101326.00;;;;5047412;28;20909;-75
2023/03/16 04:33:32;;;;;;;5.18;3.85;;;;;11.70;101327.00;;;;5050440;28;20583;-75
2023/03/16 04:35:59;;;;;;;3.85;2.97;;;;;11.70;101333.00;;;;5044823;28;20215;-75
2023/03/16 04:38:26;;;;;;;3.70;2.97;;;;;11.70;101331.00;;;;5049121;28;20227;-75
2023/03/16 04:40:54;;;;;;;4.40;2.95;;;;;11.70;101330.00;;;;5045755;28;20193;-75
2023/03/16 04:43:21;;;;;;;3.97;3.13;;;;;11.70;101330.00;;;;5039438;28;20210;-75
2023/03/16 04:45:49;;;;;;;5.30;3.78;;;;;11.70;101327.00;;;;5048380;28;20568;-75
2023/03/16 04:48:18;;;;;;;4.25;2.50;;;;;11.70;101311.00;;;;5049848;28;20727;-75
2023/03/16 04:50:45;;;;;;;3.75;2.50;;;;;11.70;101327.00;;;;5048033;28;20206;-75
2023/03/16 04:53:13;;;;;;;3.42;2.90;;;;;11.70;101330.00;;;;5045971;28;20569;-75
2023/03/16 04:55:40;;;;;;;9.75;3.40;;;;;11.70;101320.00;;;;5047476;28;20253;-75
2023/03/16 04:58:08;;;;;;;5.05;3.10;;;;;11.70;101318.00;;;;5046832;28;20245;-75
2023/03/16 05:00:35;;;;;;;3.55;2.85;;;;;11.70;101317.00;;;;5043538;28;20724;-75
2023/03/16 05:03:03;;;;;;;5.05;3.33;;;;;11.70;101323.00;;;;5044220;28;20554;-75
2023/03/16 05:05:31;;;;;;;4.72;3.17;;;;;11.70;101312.00;;;;5045612;28;20235;-75
2023/03/16 05:08:00;;;;;;;4.10;2.90;;;;;11.70;101324.00;;;;5047654;28;20592;-75
2023/03/16 05:10:27;;;;;;;2.95;2.60;;;;;11.70;101318.00;;;;5044372;28;20195;-75
2023/03/16 05:12:55;;;;;;;3.10;2.67;;;;;11.70;101325.00;;;;5043151;28;20203;-75
2023/03/16 05:15:22;;;;;;;5.45;3.13;;;;;11.70;101316.00;;;;5045933;28;20214;-75
2023/03/16 05:17:50;;;;;;;4.00;2.90;;;;;11.70;101327.00;;;;5049069;28;20652;-75
2023/03/16 05:20:18;;;;;;;5.00;3.30;;;;;11.70;101321.00;;;;5042731;28;20757;-75
2023/03/16 05:22:48;;;;;;;4.38;2.33;;;;;11.70;101317.00;;;;5048771;28;20290;-75
2023/03/16 05:25:16;;;;;;;3.17;2.88;;;;;11.70;101323.00;;;;5036979;28;20228;-75
2023/03/16 05:27:44;;;;;;;3.40;3.10;;;;;11.70;101315.00;;;;5044472;28;20302;-75
2023/03/16 05:30:13;;;;;;;3.17;2.88;;;;;11.70;101320.00;;;;5045297;28;20192;-75
2023/03/16 05:32:40;;;;;;;3.33;2.60;;;;;11.70;101317.00;;;;5041588;28;20196;-75
2023/03/16 05:35:12;;;;;;;3.03;2.60;;;;;11.70;101317.00;;;;5048242;28;20200;-75
2023/03/16 05:37:39;;;;;;;3.55;2.78;;;;;11.70;101307.00;;;;5045438;28;20218;-75
2023/03/16 05:40:16;;;;;;;4.78;3.13;;;;;11.70;101309.00;;;;5047868;28;20199;-75
2023/03/16 05:42:44;;;;;;;4.22;2.97;;;;;11.70;101308.00;;;;5045474;28;20301;-75
2023/03/16 05:45:12;;;;;;;4.05;2.88;;;;;11.80;101306.00;;;;5041852;28;20255;-75
2023/03/16 05:47:40;;;;;;;3.72;2.70;;;;;11.80;101305.00;;;;5042247;28;20196;-75
2023/03/16 05:50:10;;;;;;;3.10;2.63;;;;;11.80;101302.00;;;;5036282;28;20192;-75
2023/03/16 05:52:37;;;;;;;4.85;2.90;;;;;11.80;101298.00;;;;5035076;28;20204;-75
2023/03/16 05:55:07;;;;;;;3.45;2.65;;;;;11.80;101298.00;;;;5040912;28;20196;-75
2023/03/16 05:57:35;;;;;;;3.17;2.47;;;;;11.80;101300.00;;;;5036344;28;20200;-75
2023/03/16 06:00:11;;;;;;;4.13;2.83;;;;;11.80;101297.00;;;;5038776;28;20200;-75
2023/03/16 06:02:38;;;;;;;3.78;2.88;;;;;11.80;101300.00;;;;5036113;28;20191;-75
2023/03/16 06:05:07;;;;;;;5.93;3.15;;;;;11.80;101306.00;;;;5047776;28;20227;-75
2023/03/16 06:07:34;;;;;;;3.33;2.70;;;;;11.80;101297.00;;;;5044044;28;20227;-75
2023/03/16 06:10:03;;;;;;;3.85;2.85;;;;;11.80;101304.00;;;;5044684;28;20191;-75
2023/03/16 06:12:33;;;;;;;2.90;2.42;;;;;11.80;101300.00;;;;5047365;28;20285;-76
2023/03/16 06:15:00;;;;;;;3.97;2.75;;;;;11.80;101295.00;;;;5044628;28;20204;-75
2023/03/16 06:17:28;;;;;;;3.60;2.58;;;;;11.80;101291.00;;;;5041554;28;20195;-75
2023/03/16 06:19:55;;;;;;;3.90;2.80;;;;;11.80;101290.00;;;;5044757;28;20685;-75
2023/03/16 06:22:23;;;;;;;3.60;2.60;;;;;11.80;101295.00;;;;5041803;28;20199;-75
2023/03/16 06:24:51;;;;;;;4.38;2.60;;;;;11.80;101296.00;;;;5042132;28;20239;-75
2023/03/16 06:27:20;;;;;;;4.07;2.85;;;;;11.80;101288.00;;;;5036189;28;20200;-75
2023/03/16 06:29:48;;;;;;;4.57;2.85;;;;;11.80;101288.00;;;;5040883;28;20682;-75
2023/03/16 06:32:16;;;;;;;4.50;2.92;;;;;11.80;101279.00;;;;5044161;28;20203;-75
2023/03/16 06:34:43;;;;;;;4.65;2.65;;;;;11.90;101276.00;;;;5044241;28;20210;-75
2023/03/16 06:37:10;;;;;;;6.40;3.13;;;;;11.90;101269.00;;;;5042899;28;20205;-75
2023/03/16 06:39:38;;;;;;;3.47;2.45;;;;;11.90;101279.00;;;;5043645;28;20204;-75
2023/03/16 06:42:05;;;;;;;3.70;2.80;;;;;11.90;101276.00;;;;5044874;28;20631;-75
2023/03/16 06:44:33;;;;;;;4.00;2.60;;;;;11.90;101275.00;;;;5047118;28;20232;-75
2023/03/16 06:47:01;;;;;;;3.95;2.75;;;;;11.90;101270.00;;;;5044008;28;20203;-75
2023/03/16 06:49:29;;;;;;;2.67;2.08;;;;;12.00;101271.00;;;;5044041;28;20662;-75
2023/03/16 06:51:57;;;;;;;2.22;2.03;;;;;12.00;101270.00;;;;5031435;28;20193;-75
2023/03/16 06:54:24;;;;;;;3.95;2.10;;;;;12.00;101269.00;;;;5044120;28;20206;-75
2023/03/16 06:56:51;;;;;;;3.65;2.28;;;;;12.00;101266.00;;;;5040182;28;20207;-76
2023/03/16 06:59:19;;;;;;;3.50;2.22;;;;;12.00;101267.00;;;;5040725;28;20642;-75
2023/03/16 07:01:46;;;;;;;4.75;2.45;;;;;12.00;101269.00;;;;5044973;28;20200;-75
2023/03/16 07:04:15;;;;;;;3.92;2.20;;;;;12.00;101267.00;;;;5043790;28;20199;-75
2023/03/16 07:06:42;;;;;;;3.50;2.20;;;;;12.00;101263.00;;;;5033100;28;20215;-75
2023/03/16 07:09:11;;;;;;;2.60;1.92;;;;;12.10;101256.00;;;;5035280;28;20214;-74
2023/03/16 07:11:38;;;;;;;2.85;1.90;;;;;12.10;101265.00;;;;5040933;28;20200;-74
2023/03/16 07:14:06;;;;;;;4.45;2.50;;;;;12.10;101254.00;;;;5048416;28;20202;-74
2023/03/16 07:16:33;;;;;;;3.22;2.25;;;;;12.10;101259.00;;;;5059066;28;20333;-74
2023/03/16 07:19:00;;;;;;;3.55;2.13;;;;;12.20;101243.00;;;;5067757;28;20199;-74
2023/03/16 07:21:30;;;;;;;3.22;2.50;;;;;12.20;101250.00;;;;5053795;28;20230;-74
2023/03/16 07:23:58;;;;;;;5.55;2.28;;;;;12.20;101248.00;;;;5033147;28;20199;-74
2023/03/16 07:26:25;;;;;;;4.78;2.33;;;;;12.20;101248.00;;;;5041692;28;20215;-74
2023/03/16 07:28:52;;;;;;;2.67;2.20;;;;;12.20;101263.00;;;;5044224;28;20218;-74
2023/03/16 07:31:20;;;;;;;3.30;2.38;;;;;12.30;101255.00;;;;5044635;28;20196;-74
2023/03/16 07:33:47;;;;;;;2.92;2.15;;;;;12.30;101245.00;;;;5044161;28;20533;-75
2023/03/16 07:36:14;;;;;;;3.25;1.90;;;;;12.30;101247.00;;;;5043580;28;20200;-74
2023/03/16 07:38:43;;;;;;;7.13;2.88;;;;;12.30;101252.00;;;;5045011;28;20203;-74
2023/03/16 07:41:10;;;;;;;3.58;2.70;;;;;12.40;101250.00;;;;5042688;28;20219;-74
2023/03/16 07:43:37;;;;;;;4.55;2.63;;;;;12.40;101251.00;;;;5033692;28;20200;-74
2023/03/16 07:46:05;;;;;;;3.28;2.15;;;;;12.40;101253.00;;;;5042079;28;20468;-75
2023/03/16 07:48:32;;;;;;;3.38;2.45;;;;;12.40;101258.00;;;;5045653;28;20653;-75
2023/03/16 07:50:59;;;;;;;3.65;2.40;;;;;12.40;101258.00;;;;5038267;28;20191;-75
2023/03/16 07:53:27;;;;;;;4.18;2.60;;;;;12.40;101258.00;;;;5051067;28;20203;-75
2023/03/16 07:55:55;;;;;;;3.97;2.53;;;;;12.40;101266.00;;;;5056281;28;20210;-74
2023/03/16 07:58:22;;;;;;;4.13;2.78;;;;;12.40;101266.00;;;;5044538;28;20200;-75
2023/03/16 08:00:50;;;;;;;3.30;2.42;;;;;12.40;101263.00;;;;5048174;28;20206;-75
2023/03/16 08:03:17;;;;;;;3.40;2.40;;;;;12.40;101264.00;;;;5049672;28;20191;-74
2023/03/16 08:05:44;;;;;;;2.67;1.73;;;;;12.50;101263.00;;;;5052283;28;20220;-75
2023/03/16 08:08:11;;;;;;;2.47;2.13;;;;;12.50;101250.00;;;;5044095;28;20216;-75
2023/03/16 08:10:39;;;;;;;2.53;2.03;;;;;12.60;101246.00;;;;5046665;28;20196;-75
2023/03/16 08:13:07;;;;;;;3.03;2.20;;;;;12.60;101241.00;;;;5046566;28;20215;-75
2023/03/16 08:15:35;;;;;;;5.60;2.85;;;;;12.70;101239.00;;;;5046196;28;20204;-74
2023/03/16 08:18:05;;;;;;;2.95;1.88;;;;;12.70;101238.00;;;;5049627;28;20654;-74
2023/03/16 08:20:33;;;;;;;3.92;2.10;;;;;12.70;101231.00;;;;5057730;28;20203;-75
2023/03/16 08:23:01;;;;;;;2.38;2.17;;;;;12.80;101235.00;;;;5050046;28;20210;-75
2023/03/16 08:25:28;;;;;;;3.97;2.10;;;;;12.80;101239.00;;;;5047150;28;20223;-75
2023/03/16 08:27:56;;;;;;;3.63;2.17;;;;;12.90;101225.00;;;;5051297;28;20712;-75
2023/03/16 08:30:25;;;;;;;4.13;3.05;;;;;12.90;101232.00;;;;5048902;28;20255;-75
2023/03/16 08:32:53;;;;;;;3.20;2.50;;;;;12.90;101233.00;;;;5048118;28;20207;-75
2023/03/16 08:35:20;;;;;;;3.63;2.63;;;;;13.00;101235.00;;;;5055360;28;20199;-74
2023/03/16 08:37:48;;;;;;;5.03;3.00;;;;;13.00;101240.00;;;;5058674;28;20203;-75
2023/03/16 08:40:17;;;;;;;2.88;2.13;;;;;13.00;101240.00;;;;5044166;28;20199;-75
2023/03/16 08:42:44;;;;;;;3.90;2.30;;;;;13.00;101246.00;;;;5041965;28;20207;-75
2023/03/16 08:45:12;;;;;;;3.08;2.47;;;;;13.10;101247.00;;;;5041489;28;20235;-75
2023/03/16 08:47:41;;;;;;;5.95;2.80;;;;;13.10;101242.00;;;;5036883;28;20203;-74
2023/03/16 08:50:11;;;;;;;1.95;1.73;;;;;13.10;101242.00;;;;5042525;28;20203;-75
2023/03/16 08:52:39;;;;;;;2.83;2.35;;;;;13.20;101248.00;;;;5042231;28;20659;-75
2023/03/16 08:55:09;;;;;;;3.42;2.33;;;;;13.20;101244.00;;;;5038288;28;20287;-75
2023/03/16 08:57:38;;;;;;;2.97;2.42;;;;;13.20;101251.00;;;;5039587;28;20203;-75
2023/03/16 09:00:12;;;;;;;3.38;2.58;;;;;13.20;101238.00;;;;5041031;28;20215;-75
2023/03/16 09:02:42;;;;;;;2.95;2.28;;;;;13.20;101235.00;;;;5038747;28;20289;-74
2023/03/16 09:05:10;;;;;;;2.28;2.00;;;;;13.30;101233.00;;;;5044487;28;20715;-74
2023/03/16 09:07:38;;;;;;;2.70;2.28;;;;;13.30;101234.00;;;;5050230;28;20280;-74
2023/03/16 09:10:06;;;;;;;5.22;2.45;;;;;13.30;101234.00;;;;5043769;28;20201;-74
2023/03/16 09:12:36;;;;;;;2.65;2.35;;;;;13.30;101232.00;;;;5042296;28;20200;-74
2023/03/16 09:15:04;;;;;;;3.63;2.45;;;;;13.40;101231.00;;;;5035273;28;20211;-74
2023/03/16 09:17:32;;;;;;;3.58;2.15;;;;;13.40;101229.00;;;;5042418;28;20222;-75
2023/03/16 09:20:01;;;;;;;2.33;1.95;;;;;13.40;101230.00;;;;5045755;28;20196;-74
2023/03/16 09:22:28;;;;;;;2.90;2.40;;;;;13.40;101220.00;;;;5043095;28;20201;-75
2023/03/16 09:24:56;;;;;;;3.50;2.30;;;;;13.50;101227.00;;;;5035188;28;20192;-75
2023/03/16 09:27:24;;;;;;;3.97;2.20;;;;;13.50;101227.00;;;;5050006;28;20191;-75
2023/03/16 09:29:54;;;;;;;4.05;2.15;;;;;13.50;101230.00;;;;5046055;28;20295;-75
2023/03/16 09:32:22;;;;;;;5.72;2.42;;;;;13.50;101233.00;;;;5047032;28;21007;-75
2023/03/16 09:34:49;;;;;;;3.28;1.98;;;;;13.60;101224.00;;;;5045820;28;20204;-75
2023/03/16 09:37:18;;;;;;;3.40;1.90;;;;;13.60;101228.00;;;;5050219;28;20282;-75
2023/03/16 09:39:46;;;;;;;2.83;2.45;;;;;13.70;101221.00;;;;5044115;28;20196;-75
2023/03/16 09:42:18;;;;;;;3.50;1.98;;;;;13.70;101228.00;;;;5041379;28;20279;-75
2023/03/16 09:44:59;;;;;;;4.82;2.55;;;;;13.80;101213.00;;;;5053727;28;20200;-76
2023/03/16 09:47:28;;;;;;;5.07;2.20;;;;;13.90;101206.00;;;;5039797;28;20207;-75
2023/03/16 09:49:59;;;;;;;2.92;2.20;;;;;14.00;101223.00;;;;5043922;28;20203;-75
2023/03/16 09:52:35;;;;;;;2.90;2.20;;;;;14.00;101213.00;;;;5042087;28;20637;-75
2023/03/16 09:55:07;;;;;;;5.45;2.13;;;;;14.10;101209.00;;;;5041664;28;20207;-74
2023/03/16 09:57:39;;;;;;;3.78;2.45;;;;;14.20;101202.00;;;;5040874;28;20222;-75
2023/03/16 10:00:16;;;;;;;3.05;2.15;;;;;14.20;101217.00;;;;5043999;28;20610;-75
2023/03/16 10:02:58;;;;;;;2.58;2.28;;;;;14.30;101212.00;;;;5053370;28;20753;-75
2023/03/16 10:05:27;;;;;;;3.97;2.50;;;;;14.50;101201.00;;;;5039159;28;20222;-75
2023/03/16 10:08:08;;;;;;;3.13;2.50;;;;;14.50;101202.00;;;;5044407;28;20230;-75
2023/03/16 10:11:03;;;;;;;3.88;2.55;;;;;14.60;101195.00;;;;5043633;28;20200;-76
2023/03/16 10:13:37;;;;;;;2.38;2.10;;;;;14.70;101196.00;;;;5040613;28;20196;-75
2023/03/16 10:16:10;;;;;;;3.30;2.22;;;;;14.80;101203.00;;;;5033877;28;20200;-75
2023/03/16 10:18:43;;;;;;;6.28;2.40;;;;;14.90;101197.00;;;;5050560;28;20196;-76
2023/03/16 10:21:17;;;;;;;3.33;2.28;;;;;15.00;101190.00;;;;5041436;28;20196;-76
2023/03/16 10:23:47;;;;;;;3.13;2.03;;;;;15.10;101190.00;;;;5051260;28;20209;-76
2023/03/16 10:26:18;;;;;;;3.22;2.38;;;;;15.20;101193.00;;;;5038311;28;20235;-76
2023/03/16 10:28:46;;;;;;;3.03;2.38;;;;;15.30;101185.00;;;;5054754;28;20216;-76
2023/03/16 10:31:16;;;;;;;4.43;2.67;;;;;15.40;101194.00;;;;5049792;28;20556;-76
2023/03/16 10:33:43;;;;;;;4.00;2.35;;;;;15.50;101185.00;;;;5051045;28;20207;-76
2023/03/16 10:36:15;;;;;;;3.38;2.40;;;;;15.60;101180.00;;;;5045830;28;20203;-75
2023/03/16 10:38:47;;;;;;;3.03;2.45;;;;;15.70;101180.00;;;;5043757;28;20635;-76
2023/03/16 10:41:24;;;;;;;4.60;2.53;;;;;15.80;101174.00;;;;5040353;28;20624;-76
2023/03/16 10:43:56;;;;;;;3.22;2.38;;;;;15.90;101172.00;;;;5039160;28;20206;-75
2023/03/16 10:46:24;;;;;;;3.10;2.25;;;;;16.00;101163.00;;;;5036136;28;20414;-76
2023/03/16 10:48:58;;;;;;;2.45;1.75;;;;;16.20;101160.00;;;;5040395;28;20678;-75
2023/03/16 10:51:30;;;;;;;2.63;2.00;;;;;16.30;101167.00;;;;5053463;28;20206;-76
2023/03/16 10:54:09;;;;;;;3.85;2.55;;;;;16.40;101162.00;;;;5043972;28;20680;-75
2023/03/16 10:56:37;;;;;;;2.38;1.90;;;;;16.50;101156.00;;;;5042595;28;20203;-76
2023/03/16 10:59:15;;;;;;;2.83;1.50;;;;;16.50;101159.00;;;;5036932;28;20195;-76
2023/03/16 11:01:48;;;;;;;4.05;1.95;;;;;16.60;101156.00;;;;5046428;28;20211;-76
2023/03/16 11:04:16;;;;;;;4.45;2.13;;;;;16.70;101150.00;;;;5043995;28;20298;-76
2023/03/16 11:06:54;;;;;;;2.50;2.17;;;;;16.70;101150.00;;;;5038656;28;20785;-76
2023/03/16 11:09:25;;;;;;;2.75;1.85;;;;;16.80;101149.00;;;;5048736;28;20226;-76
2023/03/16 11:11:52;;;;;;;2.72;1.85;;;;;16.90;101146.00;;;;5053511;28;20205;-76
2023/03/16 11:14:23;;;;;;;4.82;1.85;;;;;16.90;101147.00;;;;5039980;28;20195;-77
2023/03/16 11:16:57;;;;;;;5.55;2.15;;;;;17.00;101147.00;;;;5037230;28;20199;-76
2023/03/16 11:19:28;;;;;;;4.82;1.90;;;;;17.00;101142.00;;;;5041732;28;20252;-76
2023/03/16 11:22:00;;;;;;;3.60;1.75;;;;;17.10;101134.00;;;;5049355;28;20652;-76
2023/03/16 11:24:34;;;;;;;3.13;1.50;;;;;17.10;101125.00;;;;5045523;28;20199;-76
2023/03/16 11:27:04;;;;;;;2.65;1.70;;;;;17.20;101120.00;;;;5042496;28;20242;-75
2023/03/16 11:29:45;;;;;;;3.15;1.60;;;;;17.20;101122.00;;;;5046017;28;20211;-75
2023/03/16 11:32:19;;;;;;;2.22;1.52;;;;;17.20;101115.00;;;;5037588;28;20283;-76
2023/03/16 11:34:47;;;;;;;2.42;1.67;;;;;17.30;101108.00;;;;5045270;28;20204;-76
2023/03/16 11:37:24;;;;;;;3.40;1.73;;;;;17.30;101106.00;;;;5054232;28;20222;-75
2023/03/16 11:40:08;;;;;;;2.10;1.23;;;;;17.30;101118.00;;;;5043530;28;20191;-77
2023/03/16 11:42:39;;;;;;;2.95;1.27;;;;;17.40;101112.00;;;;5037400;28;20570;-76
2023/03/16 11:45:19;;;;;;;2.50;1.33;;;;;17.50;101113.00;;;;5044649;28;20643;-76
2023/03/16 11:48:13;;;;;;;1.65;1.20;;;;;17.50;101103.00;;;;5035678;28;20236;-76
2023/03/16 11:50:53;;;;;;;2.33;1.42;;;;;17.60;101108.00;;;;5042852;28;20203;-76
2023/03/16 11:53:32;;;;;;;1.48;1.05;;;;;17.70;101101.00;;;;5039960;28;20581;-75
2023/03/16 11:56:09;;;;;;;2.78;1.65;;;;;17.80;101093.00;;;;5045147;28;20191;-76
2023/03/16 11:58:55;;;;;;;4.25;1.58;;;;;17.80;101099.00;;;;5044709;28;20572;-76
2023/03/16 12:01:32;;;;;;;3.55;1.98;;;;;17.90;101088.00;;;;5048394;28;20210;-76
2023/03/16 12:04:11;;;;;;;2.95;1.50;;;;;18.00;101084.00;;;;5044385;28;20281;-76
2023/03/16 12:06:50;;;;;;;4.40;1.65;;;;;18.00;101077.00;;;;5044394;28;20697;-76
2023/03/16 12:09:50;;;;;;;1.98;1.38;;;;;18.00;101077.00;;;;5038276;28;20192;-76
2023/03/16 12:12:36;;;;;;;3.92;1.40;;;;;18.10;101078.00;;;;5042761;28;20759;-74
2023/03/16 12:15:20;;;;;;;2.08;1.10;;;;;18.20;101081.00;;;;5042169;28;20211;-74
2023/03/16 12:17:50;;;;;;;2.97;1.13;;;;;18.40;101082.00;;;;5037665;28;20207;-74
2023/03/16 12:20:20;;;;;;;3.63;1.52;;;;;18.50;101067.00;;;;5044898;28;20292;-74
2023/03/16 12:22:51;;;;;;;2.03;1.17;;;;;18.60;101067.00;;;;5036890;28;20566;-74